Time;durP1;ratioP1;P1;durP2;ratioP2;P2;SDS_P1;SDS_P2;PMS_P1;PMS_P2;Temp;Humidity;BMP_temperature;BMP_pressure;BME280_temperature;BME280_humidity;BME280_pressure;Samples;Min_cycle;Max_cycle;Signal;HPM_P1;HPM_P2
2023/04/03 00:00:29;;;;;;;0.32;0.32;;;7.90;99.90;;;;;;5092636;28;20565;-75
2023/04/03 00:02:55;;;;;;;0.20;0.20;;;8.00;99.90;;;;;;5092724;28;20043;-74
2023/04/03 00:05:21;;;;;;;0.38;0.38;;;8.00;99.90;;;;;;5096397;28;20038;-77
2023/04/03 00:07:47;;;;;;;0.10;0.10;;;8.00;99.90;;;;;;5092405;28;20034;-75
2023/04/03 00:10:13;;;;;;;0.10;0.10;;;8.10;99.90;;;;;;5093529;28;20115;-75
2023/04/03 00:12:39;;;;;;;0.17;0.17;;;8.10;99.90;;;;;;5100953;28;20185;-75
2023/04/03 00:15:05;;;;;;;0.55;0.55;;;8.10;99.90;;;;;;5096207;28;20722;-75
2023/04/03 00:17:31;;;;;;;4.13;1.40;;;8.10;99.90;;;;;;5087662;28;20032;-76
2023/04/03 00:19:57;;;;;;;0.30;0.30;;;8.10;99.90;;;;;;5101745;28;20054;-76
2023/04/03 00:22:22;;;;;;;0.20;0.20;;;8.10;99.90;;;;;;5092603;28;20096;-75
2023/04/03 00:24:48;;;;;;;0.10;0.10;;;8.10;99.90;;;;;;5098372;28;20159;-74
2023/04/03 00:27:15;;;;;;;0.20;0.20;;;8.10;99.90;;;;;;5093409;28;20198;-75
2023/04/03 00:29:41;;;;;;;2.30;1.30;;;8.00;99.90;;;;;;5101006;28;20031;-76
2023/04/03 00:32:06;;;;;;;0.30;0.30;;;8.00;99.90;;;;;;5098492;28;20032;-76
2023/04/03 00:34:32;;;;;;;0.68;0.65;;;8.00;99.90;;;;;;5095551;28;20124;-75
2023/04/03 00:36:58;;;;;;;0.20;0.20;;;8.00;99.90;;;;;;5099172;28;20039;-76
2023/04/03 00:39:23;;;;;;;0.10;0.10;;;8.00;99.90;;;;;;5099313;28;20031;-75
2023/04/03 00:41:49;;;;;;;0.40;0.40;;;8.10;99.90;;;;;;5094755;28;20024;-76
2023/04/03 00:44:43;;;;;;;0.38;0.38;;;8.00;99.90;;;;;;5091184;28;20136;-76
2023/04/03 00:47:11;;;;;;;0.10;0.10;;;8.10;99.90;;;;;;5070940;28;20122;-76
2023/04/03 00:49:38;;;;;;;0.98;0.63;;;8.00;99.90;;;;;;5089406;28;20027;-76
2023/04/03 00:52:08;;;;;;;0.30;0.30;;;7.90;99.90;;;;;;5101493;28;20020;-75
2023/04/03 00:54:36;;;;;;;0.10;0.10;;;8.00;99.90;;;;;;5090716;28;20032;-75
2023/04/03 00:57:02;;;;;;;0.50;0.50;;;8.00;99.90;;;;;;5094321;28;20028;-75
2023/04/03 00:59:33;;;;;;;0.20;0.20;;;8.00;99.90;;;;;;5100444;28;20027;-75
2023/04/03 01:02:00;;;;;;;0.57;0.57;;;8.00;99.90;;;;;;5102399;28;20035;-75
2023/04/03 01:04:32;;;;;;;0.40;0.40;;;7.90;99.90;;;;;;5091961;28;20044;-75
2023/04/03 01:07:04;;;;;;;0.15;0.15;;;8.00;99.90;;;;;;5094427;28;20060;-76
2023/04/03 01:09:31;;;;;;;0.10;0.10;;;7.90;99.90;;;;;;5103362;28;20038;-75
2023/04/03 01:12:32;;;;;;;;;;;7.90;99.90;;;;;;5102033;28;20019;-75
2023/04/03 01:15:06;;;;;;;0.10;0.10;;;8.00;99.90;;;;;;5032509;28;19908;-74
2023/04/03 01:17:31;;;;;;;0.77;0.77;;;8.00;99.90;;;;;;5089343;28;20046;-75
2023/04/03 01:20:31;;;;;;;0.40;0.40;;;7.90;99.90;;;;;;5105386;28;20027;-75
2023/04/03 01:23:09;;;;;;;0.30;0.30;;;7.90;99.90;;;;;;5102994;28;20043;-75
2023/04/03 01:25:45;;;;;;;0.10;0.10;;;8.00;99.90;;;;;;5097526;28;20043;-75
2023/04/03 01:28:17;;;;;;;0.73;0.63;;;7.90;99.90;;;;;;5089711;28;20037;-75
2023/04/03 01:30:47;;;;;;;0.50;0.50;;;7.80;99.90;;;;;;5089623;28;20027;-74
2023/04/03 01:33:13;;;;;;;0.10;0.10;;;7.80;99.90;;;;;;5096844;28;20048;-75
2023/04/03 01:35:39;;;;;;;0.50;0.40;;;7.90;99.90;;;;;;5097646;28;20432;-75
2023/04/03 01:38:05;;;;;;;0.20;0.20;;;7.80;99.90;;;;;;5098616;28;20383;-75
2023/04/03 01:40:30;;;;;;;0.22;0.22;;;7.70;99.90;;;;;;5093592;28;20028;-76
2023/04/03 01:42:56;;;;;;;0.35;0.35;;;7.70;99.90;;;;;;5102663;28;20036;-77
2023/04/03 01:45:22;;;;;;;0.68;0.47;;;7.60;99.90;;;;;;5094315;28;20526;-77
2023/04/03 01:47:47;;;;;;;0.60;0.47;;;7.60;99.90;;;;;;5095329;28;20039;-76
2023/04/03 01:50:13;;;;;;;0.40;0.40;;;7.60;99.90;;;;;;5097402;28;20627;-78
2023/04/03 01:52:39;;;;;;;0.30;0.30;;;7.50;99.90;;;;;;5086728;28;20483;-76
2023/04/03 01:55:05;;;;;;;0.70;0.57;;;7.50;99.90;;;;;;5096300;28;20016;-76
2023/04/03 01:57:31;;;;;;;0.10;0.10;;;7.50;99.90;;;;;;5092767;28;20066;-76
2023/04/03 01:59:57;;;;;;;0.25;0.25;;;7.40;99.90;;;;;;5093557;28;20093;-76
2023/04/03 02:02:22;;;;;;;0.13;0.13;;;7.50;99.90;;;;;;5087370;28;20108;-76
2023/04/03 02:04:48;;;;;;;0.40;0.40;;;7.50;99.90;;;;;;5099841;28;20039;-75
2023/04/03 02:07:14;;;;;;;0.40;0.40;;;7.60;99.90;;;;;;5086407;28;20648;-76
2023/04/03 02:09:39;;;;;;;0.47;0.40;;;7.70;99.90;;;;;;5091768;28;20036;-75
2023/04/03 02:12:05;;;;;;;0.10;0.10;;;7.80;99.90;;;;;;5100812;28;20372;-74
2023/04/03 02:14:31;;;;;;;0.30;0.30;;;7.80;99.90;;;;;;5099882;28;20035;-76
2023/04/03 02:16:57;;;;;;;2.35;0.90;;;7.80;99.90;;;;;;5094751;28;20028;-75
2023/04/03 02:19:23;;;;;;;0.60;0.60;;;7.80;99.90;;;;;;5098843;28;20055;-75
2023/04/03 02:21:49;;;;;;;0.60;0.60;;;7.80;99.90;;;;;;5102095;28;20066;-75
2023/04/03 02:24:14;;;;;;;0.45;0.45;;;7.70;99.90;;;;;;5096132;28;20345;-77
2023/04/03 02:26:40;;;;;;;0.20;0.20;;;7.70;99.90;;;;;;5096794;28;20035;-75
2023/04/03 02:29:06;;;;;;;0.80;0.80;;;7.80;99.90;;;;;;5100535;28;20904;-76
2023/04/03 02:31:31;;;;;;;0.20;0.20;;;7.70;99.90;;;;;;5090377;28;20032;-75
2023/04/03 02:33:57;;;;;;;0.20;0.20;;;7.80;99.90;;;;;;5097658;28;20036;-76
2023/04/03 02:36:23;;;;;;;0.20;0.20;;;7.70;99.90;;;;;;5095886;28;20399;-75
2023/04/03 02:38:48;;;;;;;4.10;0.93;;;7.70;99.90;;;;;;5090282;28;20369;-75
2023/04/03 02:41:14;;;;;;;0.10;0.10;;;7.60;99.90;;;;;;5086230;28;20038;-76
2023/04/03 02:43:40;;;;;;;0.45;0.45;;;7.60;99.90;;;;;;5092501;28;20054;-75
2023/04/03 02:46:07;;;;;;;0.55;0.55;;;7.60;99.90;;;;;;5091373;28;20152;-76
2023/04/03 02:48:33;;;;;;;0.20;0.20;;;7.60;99.90;;;;;;5100165;28;20035;-75
2023/04/03 02:50:58;;;;;;;0.10;0.10;;;7.60;99.90;;;;;;5091268;28;20030;-76
2023/04/03 02:53:24;;;;;;;0.13;0.13;;;7.60;99.90;;;;;;5093139;28;20541;-75
2023/04/03 02:55:50;;;;;;;0.85;0.85;;;7.60;99.90;;;;;;5094644;28;20085;-75
2023/04/03 02:58:15;;;;;;;0.10;0.10;;;7.70;99.90;;;;;;5090859;28;20064;-77
2023/04/03 03:00:41;;;;;;;0.90;0.90;;;7.70;99.90;;;;;;5099170;28;20118;-76
2023/04/03 03:03:07;;;;;;;0.20;0.20;;;7.70;99.90;;;;;;5100408;28;20028;-77
2023/04/03 03:05:33;;;;;;;0.10;0.10;;;7.70;99.90;;;;;;5099962;28;20123;-76
2023/04/03 03:07:58;;;;;;;0.17;0.17;;;7.60;99.90;;;;;;5095882;28;20054;-77
2023/04/03 03:10:25;;;;;;;0.17;0.17;;;7.40;99.90;;;;;;5095158;27;20072;-76
2023/04/03 03:12:50;;;;;;;0.25;0.25;;;7.30;99.90;;;;;;5101161;28;20639;-76
2023/04/03 03:15:17;;;;;;;0.57;0.57;;;7.30;99.90;;;;;;5092311;28;20104;-77
2023/04/03 03:17:43;;;;;;;0.20;0.20;;;7.20;99.90;;;;;;5101817;28;20095;-76
2023/04/03 03:20:09;;;;;;;0.30;0.30;;;7.10;99.90;;;;;;5091144;28;20032;-76
2023/04/03 03:22:35;;;;;;;0.35;0.35;;;7.20;99.90;;;;;;5098112;28;20069;-76
2023/04/03 03:25:02;;;;;;;0.20;0.20;;;7.10;99.90;;;;;;5097748;28;20490;-78
2023/04/03 03:27:28;;;;;;;0.20;0.20;;;7.00;99.90;;;;;;5091717;28;20063;-78
2023/04/03 03:29:54;;;;;;;0.10;0.10;;;6.90;99.90;;;;;;5101482;28;20035;-75
2023/04/03 03:32:20;;;;;;;0.10;0.10;;;6.70;99.90;;;;;;5092223;28;20024;-75
2023/04/03 03:34:45;;;;;;;0.40;0.40;;;6.60;99.90;;;;;;5096966;28;20664;-75
2023/04/03 03:37:11;;;;;;;0.20;0.20;;;6.60;99.90;;;;;;5093495;28;20498;-76
2023/04/03 03:39:37;;;;;;;0.20;0.20;;;6.60;99.90;;;;;;5088087;28;20051;-76
2023/04/03 03:42:03;;;;;;;0.28;0.28;;;6.60;99.90;;;;;;5086238;28;20020;-76
2023/04/03 03:44:29;;;;;;;1.00;0.95;;;6.60;99.90;;;;;;5096918;28;20028;-76
2023/04/03 03:46:55;;;;;;;0.63;0.63;;;6.60;99.90;;;;;;5092721;28;20124;-75
2023/04/03 03:49:21;;;;;;;0.60;0.60;;;6.60;99.90;;;;;;5091163;28;20036;-75
2023/04/03 03:51:46;;;;;;;0.30;0.30;;;6.70;99.90;;;;;;5093082;28;20062;-75
2023/04/03 03:54:12;;;;;;;0.30;0.30;;;6.80;99.90;;;;;;5101583;28;20047;-76
2023/04/03 03:56:38;;;;;;;0.40;0.40;;;6.80;99.90;;;;;;5094021;28;20113;-75
2023/04/03 03:59:04;;;;;;;0.20;0.20;;;6.90;99.90;;;;;;5092853;28;20047;-76
2023/04/03 04:01:30;;;;;;;0.43;0.35;;;6.90;99.90;;;;;;5078485;28;20031;-75
2023/04/03 04:03:56;;;;;;;0.50;0.50;;;6.90;99.90;;;;;;5086026;28;20035;-75
2023/04/03 04:06:22;;;;;;;1.98;0.45;;;6.90;99.90;;;;;;5081692;28;20289;-75
2023/04/03 04:08:47;;;;;;;0.45;0.45;;;7.00;99.90;;;;;;5089406;28;20028;-76
2023/04/03 04:11:13;;;;;;;0.85;0.85;;;6.90;99.90;;;;;;5099952;28;20028;-76
2023/04/03 04:13:39;;;;;;;0.73;0.65;;;7.10;99.90;;;;;;5095658;28;20476;-76
2023/04/03 04:16:05;;;;;;;0.43;0.43;;;7.10;99.90;;;;;;5072221;28;20043;-76
2023/04/03 04:18:31;;;;;;;0.30;0.30;;;7.10;99.90;;;;;;5092331;28;20956;-76
2023/04/03 04:20:56;;;;;;;0.28;0.28;;;7.00;99.90;;;;;;5088536;28;20131;-75
2023/04/03 04:23:22;;;;;;;0.88;0.82;;;7.00;99.90;;;;;;5101230;28;20107;-76
2023/04/03 04:25:48;;;;;;;0.30;0.30;;;7.20;99.90;;;;;;5095744;28;20024;-75
2023/04/03 04:28:15;;;;;;;0.20;0.20;;;7.20;99.90;;;;;;5101358;28;20034;-77
2023/04/03 04:30:41;;;;;;;0.40;0.40;;;7.20;99.90;;;;;;5101686;28;20063;-76
2023/04/03 04:33:07;;;;;;;0.15;0.15;;;7.20;99.90;;;;;;5094059;28;20155;-75
2023/04/03 04:35:33;;;;;;;0.43;0.43;;;7.30;99.90;;;;;;5093636;28;20031;-76
2023/04/03 04:37:59;;;;;;;0.10;0.10;;;7.30;99.90;;;;;;5074383;28;20036;-74
2023/04/03 04:40:26;;;;;;;0.10;0.10;;;7.30;99.90;;;;;;5087260;28;20396;-75
2023/04/03 04:42:52;;;;;;;0.63;0.50;;;7.30;99.90;;;;;;5077898;28;20388;-75
2023/04/03 04:45:18;;;;;;;0.25;0.25;;;7.30;99.90;;;;;;5077269;28;20051;-75
2023/04/03 04:47:43;;;;;;;0.10;0.10;;;7.30;99.90;;;;;;5094891;28;20028;-76
2023/04/03 04:50:10;;;;;;;0.10;0.10;;;7.30;99.90;;;;;;5100912;28;20144;-75
2023/04/03 04:52:36;;;;;;;1.25;1.17;;;7.40;99.90;;;;;;5092971;28;20016;-74
2023/04/03 04:55:01;;;;;;;0.93;0.85;;;7.40;99.90;;;;;;5099833;28;20831;-76
2023/04/03 04:57:27;;;;;;;0.20;0.20;;;7.30;99.90;;;;;;5101458;28;20055;-76
2023/04/03 04:59:53;;;;;;;1.42;1.38;;;7.40;99.90;;;;;;5099511;28;20034;-75
2023/04/03 05:02:19;;;;;;;0.45;0.30;;;7.40;99.90;;;;;;5099450;28;20027;-75
2023/04/03 05:04:44;;;;;;;0.20;0.20;;;7.30;99.90;;;;;;5099560;28;20035;-75
2023/04/03 05:07:10;;;;;;;0.50;0.50;;;7.30;99.90;;;;;;5068528;28;20688;-75
2023/04/03 05:09:36;;;;;;;0.85;0.85;;;7.40;99.90;;;;;;5100574;28;20031;-77
2023/04/03 05:12:02;;;;;;;4.55;0.68;;;7.30;99.90;;;;;;5092501;28;20039;-77
2023/04/03 05:14:28;;;;;;;3.08;0.52;;;7.40;99.90;;;;;;5095476;28;20051;-76
2023/04/03 05:16:54;;;;;;;0.17;0.17;;;7.40;99.90;;;;;;5091046;28;20106;-77
2023/04/03 05:19:22;;;;;;;0.30;0.30;;;7.40;99.90;;;;;;5101046;28;20058;-76
2023/04/03 05:21:48;;;;;;;0.20;0.20;;;7.30;99.90;;;;;;5091795;28;20024;-76
2023/04/03 05:24:15;;;;;;;0.40;0.40;;;7.30;99.90;;;;;;5094267;28;20078;-78
2023/04/03 05:26:41;;;;;;;0.30;0.30;;;7.40;99.90;;;;;;5093543;28;20109;-76
2023/04/03 05:29:07;;;;;;;0.20;0.20;;;7.40;99.90;;;;;;5103393;28;20840;-76
2023/04/03 05:31:33;;;;;;;1.85;1.75;;;7.40;99.90;;;;;;5104001;28;20024;-78
2023/04/03 05:33:58;;;;;;;0.40;0.40;;;7.40;99.90;;;;;;5093020;28;20047;-75
2023/04/03 05:36:25;;;;;;;0.10;0.10;;;7.40;99.90;;;;;;5091645;28;20673;-77
2023/04/03 05:38:51;;;;;;;0.15;0.15;;;7.40;99.90;;;;;;5074293;28;20443;-77
2023/04/03 05:41:17;;;;;;;0.63;0.63;;;7.40;99.90;;;;;;5091655;28;20523;-75
2023/04/03 05:43:42;;;;;;;0.45;0.45;;;7.50;99.90;;;;;;5101925;28;20111;-75
2023/04/03 05:46:20;;;;;;;0.50;0.50;;;7.40;99.90;;;;;;5102299;28;20028;-74
2023/04/03 05:48:46;;;;;;;0.40;0.40;;;7.40;99.90;;;;;;5098429;28;20031;-74
2023/04/03 05:51:21;;;;;;;1.55;0.70;;;7.40;99.90;;;;;;5100646;28;20085;-74
2023/04/03 05:53:47;;;;;;;0.50;0.50;;;7.50;99.90;;;;;;5098189;28;20085;-76
2023/04/03 05:56:14;;;;;;;0.20;0.20;;;7.40;99.90;;;;;;5103238;28;20103;-74
2023/04/03 05:58:39;;;;;;;0.40;0.40;;;7.40;99.90;;;;;;5085234;28;20409;-75
2023/04/03 06:01:05;;;;;;;0.32;0.32;;;7.40;99.90;;;;;;5103384;28;20832;-74
2023/04/03 06:03:31;;;;;;;0.32;0.32;;;7.60;99.90;;;;;;5103632;28;20028;-74
2023/04/03 06:05:57;;;;;;;0.10;0.10;;;7.60;99.90;;;;;;5103621;28;20059;-76
2023/04/03 06:08:23;;;;;;;0.50;0.50;;;7.60;99.90;;;;;;5102868;28;20417;-73
2023/04/03 06:10:51;;;;;;;0.10;0.10;;;7.70;99.90;;;;;;5102331;28;20501;-74
2023/04/03 06:13:17;;;;;;;0.40;0.40;;;7.50;99.90;;;;;;5102904;28;20602;-74
2023/04/03 06:15:42;;;;;;;0.68;0.68;;;7.60;99.90;;;;;;5102591;28;20073;-74
2023/04/03 06:18:08;;;;;;;0.10;0.10;;;7.60;99.90;;;;;;5103039;28;20035;-73
2023/04/03 06:20:34;;;;;;;0.47;0.40;;;7.70;99.90;;;;;;5103785;28;20023;-73
2023/04/03 06:23:00;;;;;;;0.17;0.17;;;7.60;99.90;;;;;;5101847;28;20028;-74
2023/04/03 06:25:26;;;;;;;0.52;0.52;;;7.80;99.90;;;;;;5096267;28;20135;-74
2023/04/03 06:27:52;;;;;;;0.52;0.52;;;7.80;99.90;;;;;;5101023;28;20177;-74
2023/04/03 06:30:18;;;;;;;0.20;0.20;;;7.80;99.90;;;;;;5103631;28;20027;-74
2023/04/03 06:32:43;;;;;;;0.77;0.77;;;7.90;99.90;;;;;;5101817;28;20051;-75
2023/04/03 06:35:09;;;;;;;0.40;0.38;;;8.10;99.90;;;;;;5102123;28;20486;-73
2023/04/03 06:37:35;;;;;;;0.77;0.77;;;8.20;99.90;;;;;;5103469;28;20056;-74
2023/04/03 06:40:01;;;;;;;0.47;0.47;;;8.10;99.90;;;;;;5092732;28;20864;-71
2023/04/03 06:42:27;;;;;;;0.20;0.20;;;8.10;99.90;;;;;;5102444;28;20019;-74
2023/04/03 06:44:52;;;;;;;0.93;0.40;;;8.00;99.90;;;;;;5102802;28;20080;-75
2023/04/03 06:47:18;;;;;;;0.10;0.10;;;8.10;99.90;;;;;;5095331;28;20473;-75
2023/04/03 06:49:44;;;;;;;0.17;0.17;;;8.30;99.90;;;;;;5099703;28;20097;-74
2023/04/03 06:52:11;;;;;;;0.10;0.10;;;8.40;99.90;;;;;;5092090;28;20034;-74
2023/04/03 06:54:38;;;;;;;0.20;0.20;;;8.30;99.90;;;;;;5103525;28;20024;-75
2023/04/03 06:57:04;;;;;;;0.70;0.30;;;8.60;99.90;;;;;;5103899;28;20032;-74
2023/04/03 06:59:30;;;;;;;5.60;0.73;;;8.60;99.90;;;;;;5101340;28;20031;-75
2023/04/03 07:01:55;;;;;;;1.75;0.95;;;8.80;99.90;;;;;;5095802;28;20027;-74
2023/04/03 07:04:21;;;;;;;0.57;0.57;;;9.00;99.90;;;;;;5102677;28;20154;-73
2023/04/03 07:06:47;;;;;;;0.30;0.30;;;9.10;99.90;;;;;;5088029;28;20490;-74
2023/04/03 07:09:14;;;;;;;0.30;0.30;;;9.40;99.90;;;;;;5091343;28;20382;-74
2023/04/03 07:11:40;;;;;;;0.47;0.47;;;9.30;99.90;;;;;;5102720;28;20044;-74
2023/04/03 07:14:07;;;;;;;0.20;0.20;;;9.70;99.90;;;;;;5092030;28;20028;-75
2023/04/03 07:16:34;;;;;;;0.20;0.20;;;11.20;99.90;;;;;;5098856;28;20487;-74
2023/04/03 07:19:01;;;;;;;0.10;0.10;;;10.50;99.90;;;;;;5094129;28;20035;-74
2023/04/03 07:21:27;;;;;;;0.10;0.10;;;10.00;99.90;;;;;;5099403;28;20684;-75
2023/04/03 07:23:53;;;;;;;0.10;0.10;;;9.60;99.90;;;;;;5100624;28;20106;-74
2023/04/03 07:26:22;;;;;;;0.35;0.35;;;9.40;99.90;;;;;;5095767;28;20035;-75
2023/04/03 07:28:48;;;;;;;0.20;0.20;;;9.40;99.90;;;;;;5092803;28;20047;-74
2023/04/03 07:31:15;;;;;;;0.80;0.45;;;9.20;99.90;;;;;;5092767;28;20053;-73
2023/04/03 07:33:41;;;;;;;0.40;0.40;;;9.20;99.90;;;;;;5102609;28;20142;-73
2023/04/03 07:36:07;;;;;;;0.45;0.35;;;9.20;99.90;;;;;;5093711;28;20027;-74
2023/04/03 07:38:35;;;;;;;0.20;0.20;;;9.10;99.90;;;;;;5101715;28;20055;-74
2023/04/03 07:41:01;;;;;;;0.17;0.17;;;9.10;99.90;;;;;;5089776;28;20272;-73
2023/04/03 07:43:27;;;;;;;0.60;0.60;;;9.10;99.90;;;;;;5097610;28;20028;-75
2023/04/03 07:45:54;;;;;;;0.85;0.75;;;9.10;99.90;;;;;;5094876;28;20032;-75
2023/04/03 07:48:25;;;;;;;0.80;0.80;;;9.00;99.90;;;;;;5089960;28;20128;-74
2023/04/03 07:50:51;;;;;;;0.30;0.30;;;9.10;99.90;;;;;;5097595;28;20027;-74
2023/04/03 07:53:18;;;;;;;0.20;0.20;;;9.10;99.90;;;;;;5094891;28;20028;-74
2023/04/03 07:55:47;;;;;;;0.17;0.17;;;9.10;99.90;;;;;;5087333;28;20020;-73
2023/04/03 07:58:17;;;;;;;0.10;0.10;;;9.10;99.90;;;;;;5098469;28;20046;-73
2023/04/03 08:00:43;;;;;;;0.10;0.10;;;9.10;99.90;;;;;;5094806;28;20030;-75
2023/04/03 08:03:10;;;;;;;0.10;0.10;;;9.10;99.90;;;;;;5092202;28;20032;-76
2023/04/03 08:05:45;;;;;;;0.10;0.10;;;9.10;99.90;;;;;;5093680;28;20028;-75
2023/04/03 08:08:13;;;;;;;0.43;0.43;;;9.00;99.90;;;;;;5088391;28;20100;-74
2023/04/03 08:10:39;;;;;;;0.10;0.10;;;9.10;99.90;;;;;;5097566;28;20107;-74
2023/04/03 08:13:05;;;;;;;0.10;0.10;;;8.90;99.90;;;;;;5100882;28;20405;-75
2023/04/03 08:15:31;;;;;;;0.10;0.10;;;9.00;99.90;;;;;;5101866;28;20019;-74
2023/04/03 08:17:58;;;;;;;0.10;0.10;;;9.10;99.90;;;;;;5098617;28;20776;-74
2023/04/03 08:20:23;;;;;;;0.10;0.10;;;9.10;99.90;;;;;;5100251;28;20031;-75
2023/04/03 08:22:49;;;;;;;0.15;0.15;;;9.20;99.90;;;;;;5096227;28;20458;-74
2023/04/03 08:25:15;;;;;;;0.10;0.10;;;9.40;99.90;;;;;;5100729;28;20370;-74
2023/04/03 08:27:41;;;;;;;0.10;0.10;;;9.40;99.90;;;;;;5091558;28;20032;-74
2023/04/03 08:30:08;;;;;;;0.10;0.10;;;9.90;99.90;;;;;;5098383;28;20031;-75
2023/04/03 08:32:35;;;;;;;0.10;0.10;;;9.70;99.90;;;;;;5085577;28;20019;-75
2023/04/03 08:35:01;;;;;;;;;;;9.60;99.90;;;;;;5101208;28;20420;-75
2023/04/03 08:37:27;;;;;;;0.10;0.10;;;9.50;99.90;;;;;;5101176;28;20437;-74
2023/04/03 08:39:53;;;;;;;0.10;0.10;;;9.80;99.90;;;;;;5089087;28;20084;-73
2023/04/03 08:42:43;;;;;;;0.10;0.10;;;10.00;99.90;;;;;;5082702;28;20277;-74
2023/04/03 08:45:34;;;;;;;0.10;0.10;;;10.90;99.90;;;;;;5098401;28;20028;-74
2023/04/03 08:48:11;;;;;;;0.10;0.10;;;11.60;98.10;;;;;;5091426;28;20093;-74
2023/04/03 08:50:45;;;;;;;0.00;0.00;;;12.20;95.90;;;;;;5083245;28;20032;-74
2023/04/03 08:53:17;;;;;;;0.28;0.28;;;15.40;89.10;;;;;;5092014;28;20800;-74
2023/04/03 08:55:46;;;;;;;1.10;0.45;;;15.70;82.40;;;;;;5095340;28;20039;-74
2023/04/03 08:58:30;;;;;;;0.10;0.10;;;14.90;83.50;;;;;;5094357;28;20034;-75
2023/04/03 09:01:00;;;;;;;0.00;0.00;;;17.90;76.30;;;;;;5104243;28;20023;-74
2023/04/03 09:03:33;;;;;;;0.00;0.00;;;16.50;77.60;;;;;;5086854;28;20027;-75
2023/04/03 09:06:11;;;;;;;0.00;0.00;;;16.60;79.00;;;;;;5099263;28;20047;-75
2023/04/03 09:08:55;;;;;;;0.00;0.00;;;17.50;76.00;;;;;;5100402;28;20034;-74
2023/04/03 09:11:40;;;;;;;0.00;0.00;;;17.80;74.30;;;;;;5101260;28;20028;-75
2023/04/03 09:14:25;;;;;;;0.05;0.05;;;19.50;68.00;;;;;;5094210;28;20185;-75
2023/04/03 09:16:59;;;;;;;0.10;0.10;;;15.10;73.50;;;;;;5094333;28;20032;-75
2023/04/03 09:19:30;;;;;;;0.00;0.00;;;14.30;79.20;;;;;;5091965;28;20023;-75
2023/04/03 09:22:26;;;;;;;0.00;0.00;;;14.60;78.50;;;;;;5095524;28;20097;-75
2023/04/03 09:25:05;;;;;;;0.10;0.10;;;13.70;82.60;;;;;;5096673;28;20024;-74
2023/04/03 09:27:31;;;;;;;0.08;0.08;;;13.80;84.10;;;;;;5093166;28;20067;-75
2023/04/03 09:29:57;;;;;;;0.00;0.00;;;15.50;84.20;;;;;;5104401;28;20119;-75
2023/04/03 09:32:36;;;;;;;0.10;0.10;;;14.10;80.60;;;;;;5104689;28;20019;-74
2023/04/03 09:35:23;;;;;;;0.30;0.30;;;13.10;84.00;;;;;;5103159;28;20128;-74
2023/04/03 09:37:51;;;;;;;0.00;0.00;;;13.10;84.40;;;;;;5097195;28;20528;-74
2023/04/03 09:40:25;;;;;;;0.10;0.10;;;14.30;81.70;;;;;;5102890;28;20050;-75
2023/04/03 09:42:57;;;;;;;0.00;0.00;;;15.40;78.10;;;;;;5101964;28;20634;-76
2023/04/03 09:45:31;;;;;;;0.00;0.00;;;15.30;77.90;;;;;;5096049;28;20027;-75
2023/04/03 09:48:18;;;;;;;0.00;0.00;;;15.80;77.30;;;;;;5090290;28;20035;-75
2023/04/03 09:51:01;;;;;;;0.00;0.00;;;15.40;75.70;;;;;;5102334;28;20024;-74
2023/04/03 09:53:40;;;;;;;0.17;0.17;;;16.00;74.70;;;;;;5102097;28;20028;-75
2023/04/03 09:56:20;;;;;;;0.10;0.10;;;17.90;70.40;;;;;;5090850;28;20020;-75
2023/04/03 09:59:10;;;;;;;0.05;0.05;;;17.70;68.80;;;;;;5096736;28;20024;-75
2023/04/03 10:01:39;;;;;;;0.00;0.00;;;20.40;69.60;;;;;;5082023;28;20064;-76
2023/04/03 10:04:15;;;;;;;0.17;0.17;;;20.40;61.60;;;;;;5089809;28;20028;-75
2023/04/03 10:07:01;;;;;;;0.00;0.00;;;15.80;70.60;;;;;;5092532;28;20038;-74
2023/04/03 10:09:32;;;;;;;0.00;0.00;;;16.60;70.50;;;;;;5101487;28;20148;-75
2023/04/03 10:12:14;;;;;;;0.00;0.00;;;17.00;64.30;;;;;;5103533;28;20064;-75
2023/04/03 10:14:55;;;;;;;0.00;0.00;;;17.30;68.70;;;;;;5092352;28;20024;-74
2023/04/03 10:17:21;;;;;;;0.00;0.00;;;17.40;68.10;;;;;;5083943;28;20031;-74
2023/04/03 10:19:58;;;;;;;0.00;0.00;;;16.20;70.20;;;;;;5098923;28;20023;-75
2023/04/03 10:22:48;;;;;;;0.00;0.00;;;15.60;75.40;;;;;;5090818;28;20028;-74
2023/04/03 10:25:48;;;;;;;0.00;0.00;;;15.30;73.00;;;;;;5090579;28;20019;-74
2023/04/03 10:28:43;;;;;;;0.00;0.00;;;15.20;74.20;;;;;;5098483;28;20032;-75
2023/04/03 10:31:56;;;;;;;0.05;0.05;;;14.60;74.50;;;;;;5095466;28;20031;-74
2023/04/03 10:34:29;;;;;;;0.00;0.00;;;16.20;76.20;;;;;;5091129;28;20044;-75
2023/04/03 10:37:08;;;;;;;0.00;0.00;;;15.70;75.50;;;;;;5093381;28;20161;-74
2023/04/03 10:39:51;;;;;;;0.00;0.00;;;16.70;78.00;;;;;;5102533;28;20035;-74
2023/04/03 10:42:55;;;;;;;0.00;0.00;;;16.50;77.70;;;;;;5094672;28;20051;-74
2023/04/03 10:45:32;;;;;;;0.00;0.00;;;16.30;77.10;;;;;;5019835;28;20401;-75
2023/04/03 10:48:14;;;;;;;0.00;0.00;;;16.60;73.10;;;;;;5084070;28;20059;-75
2023/04/03 10:51:00;;;;;;;0.00;0.00;;;15.80;72.70;;;;;;5095725;28;20032;-74
2023/04/03 10:53:32;;;;;;;0.00;0.00;;;15.10;73.90;;;;;;5094147;28;20752;-76
2023/04/03 10:56:07;;;;;;;0.00;0.00;;;15.80;72.70;;;;;;5088054;28;20028;-75
2023/04/03 10:58:39;;;;;;;0.00;0.00;;;15.40;74.80;;;;;;5092642;28;20035;-74
2023/04/03 11:01:12;;;;;;;0.00;0.00;;;15.00;72.00;;;;;;5101949;28;20481;-74
2023/04/03 11:03:49;;;;;;;0.08;0.08;;;14.50;75.30;;;;;;5102941;28;20030;-75
2023/04/03 11:06:17;;;;;;;0.47;0.47;;;14.30;73.90;;;;;;5096727;28;20078;-75
2023/04/03 11:09:06;;;;;;;0.10;0.10;;;14.40;73.80;;;;;;5084391;28;20028;-74
2023/04/03 11:11:38;;;;;;;0.00;0.00;;;14.00;74.50;;;;;;5102362;28;20023;-75
2023/04/03 11:14:31;;;;;;;0.10;0.10;;;13.80;74.80;;;;;;5090427;28;20135;-74
2023/04/03 11:17:10;;;;;;;0.00;0.00;;;14.00;79.30;;;;;;5093748;28;20539;-75
2023/04/03 11:19:49;;;;;;;0.00;0.00;;;15.00;78.80;;;;;;5101581;28;20275;-75
2023/04/03 11:22:20;;;;;;;0.10;0.10;;;15.20;77.70;;;;;;5102111;28;20064;-74
2023/04/03 11:25:02;;;;;;;0.10;0.10;;;15.10;76.50;;;;;;5097929;28;20028;-75
2023/04/03 11:27:35;;;;;;;0.20;0.20;;;14.60;77.50;;;;;;5098319;28;20530;-76
2023/04/03 11:30:05;;;;;;;0.20;0.20;;;14.40;76.80;;;;;;5102135;28;20725;-75
2023/04/03 11:32:46;;;;;;;0.20;0.20;;;14.90;78.00;;;;;;5091437;28;20035;-75
2023/04/03 11:35:13;;;;;;;0.10;0.10;;;15.40;74.80;;;;;;5101411;28;20111;-74
2023/04/03 11:37:44;;;;;;;0.00;0.00;;;14.70;73.20;;;;;;5099485;28;20130;-74
2023/04/03 11:40:30;;;;;;;0.00;0.00;;;14.70;73.30;;;;;;5088705;28;20508;-75
2023/04/03 11:42:59;;;;;;;0.00;0.00;;;14.60;73.90;;;;;;5100827;28;20031;-74
2023/04/03 11:45:24;;;;;;;0.00;0.00;;;15.20;76.30;;;;;;5095042;28;20069;-74
2023/04/03 11:47:54;;;;;;;0.00;0.00;;;15.50;74.60;;;;;;5100955;28;20110;-75
2023/04/03 11:50:42;;;;;;;9.23;0.50;;;15.20;75.00;;;;;;5091933;28;20051;-74
2023/04/03 11:53:10;;;;;;;0.10;0.10;;;15.80;75.00;;;;;;5087656;28;20020;-74
2023/04/03 11:55:52;;;;;;;0.95;0.25;;;15.00;74.50;;;;;;5086620;28;20105;-75
2023/04/03 11:58:18;;;;;;;0.10;0.10;;;15.10;74.60;;;;;;5087536;28;20437;-75
2023/04/03 12:00:46;;;;;;;0.00;0.00;;;15.00;74.20;;;;;;5098425;28;20096;-73
2023/04/03 12:03:27;;;;;;;0.10;0.10;;;14.80;72.10;;;;;;5102515;28;20060;-74
2023/04/03 12:06:11;;;;;;;0.00;0.00;;;15.60;71.20;;;;;;5089128;28;20032;-74
2023/04/03 12:08:40;;;;;;;0.00;0.00;;;15.70;69.90;;;;;;5090494;28;20063;-75
2023/04/03 12:11:08;;;;;;;0.00;0.00;;;15.70;70.60;;;;;;5099480;28;21348;-74
2023/04/03 12:13:41;;;;;;;0.00;0.00;;;15.10;72.10;;;;;;5095534;28;20028;-75
2023/04/03 12:16:19;;;;;;;0.00;0.00;;;15.10;69.90;;;;;;5088574;28;20024;-74
2023/04/03 12:18:56;;;;;;;0.00;0.00;;;15.50;71.70;;;;;;5086769;28;20034;-75
2023/04/03 12:21:43;;;;;;;0.00;0.00;;;15.60;71.50;;;;;;5094171;28;20811;-75
2023/04/03 12:24:12;;;;;;;0.00;0.00;;;15.40;72.10;;;;;;5072925;28;20024;-74
2023/04/03 12:27:02;;;;;;;0.10;0.10;;;14.80;74.60;;;;;;5104594;28;20062;-75
2023/04/03 12:29:34;;;;;;;0.00;0.00;;;15.20;73.00;;;;;;5102740;28;20084;-74
2023/04/03 12:32:36;;;;;;;0.00;0.00;;;15.10;73.10;;;;;;5105849;28;20016;-74
2023/04/03 12:35:16;;;;;;;0.00;0.00;;;15.30;71.50;;;;;;5074738;28;20040;-74
2023/04/03 12:37:55;;;;;;;0.00;0.00;;;15.00;69.60;;;;;;5085618;28;20028;-75
2023/04/03 12:40:45;;;;;;;0.00;0.00;;;15.10;69.90;;;;;;5079589;28;20846;-74
2023/04/03 12:43:48;;;;;;;0.00;0.00;;;15.20;72.20;;;;;;5076948;28;20017;-75
2023/04/03 12:46:20;;;;;;;0.00;0.00;;;15.80;71.80;;;;;;5082775;28;20099;-73
2023/04/03 12:48:50;;;;;;;0.10;0.10;;;15.50;69.80;;;;;;5075324;28;20634;-74
2023/04/03 12:51:21;;;;;;;0.00;0.00;;;14.80;67.00;;;;;;5083957;28;20027;-73
2023/04/03 12:53:47;;;;;;;0.00;0.00;;;15.30;68.20;;;;;;5066916;28;20399;-75
2023/04/03 12:56:46;;;;;;;0.00;0.00;;;15.20;68.20;;;;;;5084926;28;20039;-74
2023/04/03 12:59:22;;;;;;;0.00;0.00;;;15.60;68.90;;;;;;5028459;28;20039;-75
2023/04/03 13:01:58;;;;;;;0.00;0.00;;;15.90;69.30;;;;;;5075203;28;20030;-74
2023/04/03 13:04:25;;;;;;;0.00;0.00;;;16.10;68.80;;;;;;5085862;28;20129;-75
2023/04/03 13:06:51;;;;;;;0.00;0.00;;;16.00;68.80;;;;;;5077263;28;20036;-74
2023/04/03 13:09:25;;;;;;;0.00;0.00;;;16.30;68.60;;;;;;5071573;28;20024;-75
2023/04/03 13:11:58;;;;;;;0.00;0.00;;;16.20;69.30;;;;;;5085285;28;20494;-73